createdAt,value
2023-01-26T00:01:12.826Z,101180.63
2023-01-26T00:03:45.130Z,101177.97
2023-01-26T00:06:19.165Z,101168.72
2023-01-26T00:08:53.348Z,101172.03
2023-01-26T00:11:27.498Z,101173.72
2023-01-26T00:14:01.348Z,101154.16
2023-01-26T00:16:33.359Z,101162.59
2023-01-26T00:19:05.689Z,101165.16
2023-01-26T00:21:37.724Z,101150.81
2023-01-26T00:24:09.699Z,101169.41
2023-01-26T00:26:41.699Z,101157.53
2023-01-26T00:29:13.684Z,101168.53
2023-01-26T00:31:45.712Z,101138.06
2023-01-26T00:34:17.670Z,101160.06
2023-01-26T00:36:49.667Z,101144.19
2023-01-26T00:39:21.722Z,101138.09
2023-01-26T00:42:11.800Z,101154.03
2023-01-26T00:44:44.232Z,101174.50
2023-01-26T00:47:16.975Z,101138.97
2023-01-26T00:49:48.922Z,101149.91
2023-01-26T00:52:20.908Z,101146.41
2023-01-26T00:54:52.880Z,101148.28
2023-01-26T00:57:24.866Z,101141.34
2023-01-26T00:59:56.812Z,101140.53
2023-01-26T01:02:28.843Z,101146.44
2023-01-26T01:05:00.825Z,101129.50
2023-01-26T01:07:32.848Z,101116.84
2023-01-26T01:10:05.083Z,101129.56
2023-01-26T01:12:37.207Z,101116.94
2023-01-26T01:15:09.733Z,101121.94
2023-01-26T01:17:42.255Z,101123.59
2023-01-26T01:20:14.366Z,101126.88
2023-01-26T01:22:46.431Z,101073.66
2023-01-26T01:25:18.331Z,101111.72
2023-01-26T01:27:50.245Z,101066.91
2023-01-26T01:30:22.187Z,101086.38
2023-01-26T01:32:54.167Z,101115.84
2023-01-26T01:35:26.124Z,101103.97
2023-01-26T01:37:58.107Z,101105.78
2023-01-26T01:40:30.135Z,101110.69
2023-01-26T01:43:02.102Z,101088.66
2023-01-26T01:45:43.213Z,101098.78
2023-01-26T01:48:42.452Z,101105.50
2023-01-26T01:51:20.250Z,101033.84
2023-01-26T01:53:53.687Z,101102.13
2023-01-26T01:56:29.840Z,101097.00
2023-01-26T01:59:05.029Z,101093.69
2023-01-26T02:01:37.259Z,101029.56
2023-01-26T02:04:10.165Z,101080.91
2023-01-26T02:06:52.191Z,101090.09
2023-01-26T02:09:50.364Z,101075.84
2023-01-26T02:12:28.120Z,101086.78
2023-01-26T02:15:01.707Z,101068.22
2023-01-26T02:17:33.721Z,101081.66
2023-01-26T02:20:11.018Z,101057.91
2023-01-26T02:22:49.533Z,101060.38
2023-01-26T02:25:37.515Z,101033.44
2023-01-26T02:28:09.591Z,101052.81
2023-01-26T02:30:41.628Z,101037.50
2023-01-26T02:33:21.890Z,101053.56
2023-01-26T02:35:53.930Z,101043.38
2023-01-26T02:38:31.138Z,101052.63
2023-01-26T02:41:08.052Z,101043.31
2023-01-26T02:43:40.563Z,101001.19
2023-01-26T02:46:12.586Z,101030.66
2023-01-26T02:49:03.287Z,101027.34
2023-01-26T02:51:35.307Z,101039.97
2023-01-26T02:54:07.272Z,101007.03
2023-01-26T02:56:42.350Z,100979.09
2023-01-26T02:59:14.268Z,101007.75
2023-01-26T03:01:50.508Z,101029.75
2023-01-26T03:04:22.510Z,100981.63
2023-01-26T03:06:54.544Z,101005.84
2023-01-26T03:09:26.477Z,100990.72
2023-01-26T03:11:58.483Z,101008.41
2023-01-26T03:14:30.545Z,100996.41
2023-01-26T03:17:02.514Z,100972.00
2023-01-26T03:19:52.959Z,100952.75
2023-01-26T03:22:43.661Z,100976.22
2023-01-26T03:25:34.452Z,100981.25
2023-01-26T03:28:06.251Z,100998.13
2023-01-26T03:30:38.278Z,100977.81
2023-01-26T03:33:10.198Z,100988.63
2023-01-26T03:35:42.196Z,100964.16
2023-01-26T03:38:14.175Z,100972.75
2023-01-26T03:41:04.696Z,100971.94
2023-01-26T03:43:55.317Z,100981.16
2023-01-26T03:46:46.215Z,100981.06
2023-01-26T03:49:36.509Z,100981.06
2023-01-26T03:52:27.252Z,100976.06
2023-01-26T03:55:18.053Z,100977.72
2023-01-26T03:57:49.952Z,100977.59
2023-01-26T04:00:22.209Z,100981.06
2023-01-26T04:03:12.987Z,100952.47
2023-01-26T04:06:16.422Z,100985.25
2023-01-26T04:08:48.743Z,100969.31
2023-01-26T04:11:20.691Z,100964.13
2023-01-26T04:14:11.120Z,100952.31
2023-01-26T04:17:01.750Z,100957.31
2023-01-26T04:19:52.575Z,100940.34
2023-01-26T04:22:24.328Z,100960.63
2023-01-26T04:24:57.576Z,100952.19
2023-01-26T04:27:29.493Z,100951.34
2023-01-26T04:30:05.094Z,100955.50
2023-01-26T04:32:37.209Z,100951.25
2023-01-26T04:35:10.591Z,100951.25
2023-01-26T04:37:43.084Z,100957.19
2023-01-26T04:40:15.147Z,100953.84
2023-01-26T04:42:47.283Z,100958.03
2023-01-26T04:45:19.180Z,100947.00
2023-01-26T04:47:51.244Z,100951.38
2023-01-26T04:50:23.220Z,100945.47
2023-01-26T04:52:55.138Z,100942.84
2023-01-26T04:55:27.077Z,100940.28
2023-01-26T04:57:59.068Z,100932.75
2023-01-26T05:00:31.039Z,100923.50
2023-01-26T05:03:02.991Z,100936.09
2023-01-26T05:05:39.142Z,100959.75
2023-01-26T05:08:11.284Z,100933.56
2023-01-26T05:10:43.554Z,100953.81
2023-01-26T05:13:15.999Z,100918.44
2023-01-26T05:15:48.199Z,100939.69
2023-01-26T05:18:20.199Z,100926.94
2023-01-26T05:20:52.208Z,100941.25
2023-01-26T05:23:24.300Z,100946.19
2023-01-26T05:25:56.273Z,100947.91
2023-01-26T05:28:28.485Z,100943.75
2023-01-26T05:31:00.537Z,100920.91
2023-01-26T05:33:32.740Z,100939.50
2023-01-26T05:36:07.071Z,100942.84
2023-01-26T05:38:39.019Z,100945.47
2023-01-26T05:41:10.952Z,100928.56
2023-01-26T05:43:42.876Z,100917.75
2023-01-26T05:46:14.879Z,100936.16
2023-01-26T05:48:46.867Z,100948.03
2023-01-26T05:51:18.889Z,100930.22
2023-01-26T05:53:50.831Z,100928.53
2023-01-26T05:56:22.762Z,100944.72
2023-01-26T05:58:54.725Z,100925.34
2023-01-26T06:01:26.682Z,100935.47
2023-01-26T06:03:58.680Z,100947.16
2023-01-26T06:06:30.703Z,100953.09
2023-01-26T06:09:02.736Z,100938.69
2023-01-26T06:11:34.717Z,100891.66
2023-01-26T06:14:07.156Z,100941.25
2023-01-26T06:16:39.250Z,100940.53
2023-01-26T06:19:12.025Z,100955.69
2023-01-26T06:21:43.965Z,100937.88
2023-01-26T06:24:16.044Z,100936.38
2023-01-26T06:26:49.648Z,100938.03
2023-01-26T06:29:21.795Z,100938.03
2023-01-26T06:31:53.984Z,100958.38
2023-01-26T06:34:26.420Z,100946.44
2023-01-26T06:36:58.680Z,100938.09
2023-01-26T06:39:30.594Z,100940.63
2023-01-26T06:42:02.569Z,100944.03
2023-01-26T06:44:34.479Z,100959.97
2023-01-26T06:47:07.741Z,100963.41
2023-01-26T06:49:39.696Z,100963.38
2023-01-26T06:52:27.581Z,100941.38
2023-01-26T06:55:00.788Z,100955.59
2023-01-26T06:57:33.037Z,100945.38
2023-01-26T07:00:06.333Z,100899.88
2023-01-26T07:02:38.328Z,100921.81
2023-01-26T07:05:11.405Z,100939.53
2023-01-26T07:07:44.844Z,100946.22
2023-01-26T07:10:17.010Z,100955.50
2023-01-26T07:12:48.923Z,100944.72
2023-01-26T07:15:20.878Z,100897.38
2023-01-26T07:17:53.031Z,100913.41
2023-01-26T07:20:25.395Z,100955.63
2023-01-26T07:23:00.117Z,100947.94
2023-01-26T07:25:32.063Z,100954.72
2023-01-26T07:28:04.085Z,100953.00
2023-01-26T07:30:36.082Z,100915.00
2023-01-26T07:33:08.021Z,100906.56
2023-01-26T07:35:40.035Z,100906.44
2023-01-26T07:38:11.954Z,100896.41
2023-01-26T07:40:43.923Z,100929.94
2023-01-26T07:43:17.146Z,100930.66
2023-01-26T07:45:53.607Z,100920.50
2023-01-26T07:48:25.611Z,100900.03
2023-01-26T07:51:01.965Z,100895.78
2023-01-26T07:53:39.705Z,100926.16
2023-01-26T07:56:14.006Z,100924.25
2023-01-26T07:58:51.030Z,100901.59
2023-01-26T08:01:23.313Z,100906.56
2023-01-26T08:03:56.509Z,100917.44
2023-01-26T08:06:28.467Z,100915.91
2023-01-26T08:09:00.574Z,100872.19
2023-01-26T08:11:32.572Z,100899.09
2023-01-26T08:14:04.632Z,100909.25
2023-01-26T08:16:36.778Z,100911.06
2023-01-26T08:19:08.919Z,100888.09
2023-01-26T08:21:40.904Z,100889.03
2023-01-26T08:24:13.646Z,100909.94
2023-01-26T08:26:45.659Z,100891.09
2023-01-26T08:29:17.637Z,100882.72
2023-01-26T08:31:49.673Z,100902.06
2023-01-26T08:34:22.883Z,100866.88
2023-01-26T08:36:54.830Z,100894.50
2023-01-26T08:39:26.774Z,100893.72
2023-01-26T08:41:58.779Z,100879.28
2023-01-26T08:44:30.761Z,100873.44
2023-01-26T08:47:03.140Z,100892.03
2023-01-26T08:49:35.054Z,100914.09
2023-01-26T08:52:07.074Z,100893.75
2023-01-26T08:54:39.010Z,100930.06
2023-01-26T08:57:12.557Z,100909.19
2023-01-26T08:59:44.907Z,100886.22
2023-01-26T09:02:17.074Z,100928.31
2023-01-26T09:04:49.073Z,100891.28
2023-01-26T09:07:21.254Z,100922.56
2023-01-26T09:09:53.211Z,100917.38
2023-01-26T09:12:25.327Z,100913.38
2023-01-26T09:14:57.285Z,100918.31
2023-01-26T09:17:29.893Z,100920.06
2023-01-26T09:20:02.026Z,100940.97
2023-01-26T09:22:33.966Z,100933.38
2023-01-26T09:25:06.443Z,100933.28
2023-01-26T09:27:38.653Z,100907.97
2023-01-26T09:30:12.180Z,100931.22
2023-01-26T09:32:44.193Z,100924.50
2023-01-26T09:35:16.411Z,100923.78
2023-01-26T09:37:48.626Z,100933.00
2023-01-26T09:40:24.623Z,100924.44
2023-01-26T09:43:05.606Z,100920.97
2023-01-26T09:46:06.531Z,100922.63
2023-01-26T09:48:52.994Z,100919.19
2023-01-26T09:51:35.826Z,100912.38
2023-01-26T09:54:44.933Z,100904.44
2023-01-26T09:57:21.401Z,100914.75
2023-01-26T10:00:03.075Z,100912.94
2023-01-26T10:03:01.760Z,100911.44
2023-01-26T10:06:11.035Z,100892.47
2023-01-26T10:08:44.541Z,100902.50
2023-01-26T10:11:27.618Z,100901.41
2023-01-26T10:14:14.645Z,100881.41
2023-01-26T10:16:50.803Z,100856.09
2023-01-26T10:19:49.642Z,100893.78
2023-01-26T10:22:38.715Z,100881.13
2023-01-26T10:25:38.093Z,100879.47
2023-01-26T10:28:19.512Z,100880.88
2023-01-26T10:30:52.252Z,100870.69
2023-01-26T10:33:33.190Z,100867.81
2023-01-26T10:36:06.869Z,100865.03
2023-01-26T10:38:41.038Z,100845.63
2023-01-26T10:41:18.987Z,100870.13
2023-01-26T10:43:58.299Z,100865.00
2023-01-26T10:46:42.014Z,100864.75
2023-01-26T10:49:17.444Z,100850.63
2023-01-26T10:52:09.424Z,100855.75
2023-01-26T10:54:44.145Z,100822.69
2023-01-26T10:57:29.187Z,100854.00
2023-01-26T11:00:08.692Z,100849.22
2023-01-26T11:02:51.095Z,100836.72
2023-01-26T11:05:25.493Z,100833.28
2023-01-26T11:08:03.401Z,100794.53
2023-01-26T11:10:38.285Z,100819.81
2023-01-26T11:13:20.305Z,100788.47
2023-01-26T11:16:15.313Z,100823.13
2023-01-26T11:19:42.942Z,100805.22
2023-01-26T11:23:02.036Z,100809.31
2023-01-26T11:26:16.350Z,100792.34
2023-01-26T11:28:51.023Z,100809.16
2023-01-26T11:31:44.447Z,100804.75
2023-01-26T11:34:32.676Z,100788.94
2023-01-26T11:37:16.629Z,100799.06
2023-01-26T11:40:09.980Z,100792.22
2023-01-26T11:43:02.729Z,100781.50
2023-01-26T11:45:59.482Z,100787.28
2023-01-26T11:49:06.560Z,100779.78
2023-01-26T11:51:50.113Z,100773.97
2023-01-26T11:54:36.385Z,100770.44
2023-01-26T11:57:21.600Z,100750.25
2023-01-26T12:00:06.308Z,100746.88
2023-01-26T12:02:38.833Z,100762.56
2023-01-26T12:05:25.652Z,100760.31
2023-01-26T12:08:18.243Z,100745.81
2023-01-26T12:11:22.926Z,100766.81
2023-01-26T12:14:16.883Z,100773.50
2023-01-26T12:17:17.766Z,100763.56
2023-01-26T12:20:05.130Z,100758.47
2023-01-26T12:22:41.013Z,100748.53
2023-01-26T12:25:31.967Z,100748.91
2023-01-26T12:28:09.110Z,100732.28
2023-01-26T12:30:53.363Z,100750.66
2023-01-26T12:33:26.141Z,100755.06
2023-01-26T12:36:00.921Z,100755.84
2023-01-26T12:38:42.023Z,100752.31
2023-01-26T12:41:52.336Z,100752.53
2023-01-26T12:44:27.449Z,100757.47
2023-01-26T12:47:20.684Z,100737.91
2023-01-26T12:50:02.613Z,100716.06
2023-01-26T12:52:34.559Z,100745.66
2023-01-26T12:55:31.686Z,100751.75
2023-01-26T12:58:11.434Z,100750.88
2023-01-26T13:00:59.725Z,100743.41
2023-01-26T13:03:42.126Z,100750.97
2023-01-26T13:06:14.104Z,100754.47
2023-01-26T13:09:06.228Z,100752.63
2023-01-26T13:11:59.378Z,100741.56
2023-01-26T13:14:33.835Z,100744.59
2023-01-26T13:17:27.550Z,100746.19
2023-01-26T13:20:00.416Z,100740.47
2023-01-26T13:22:41.606Z,100752.13
2023-01-26T13:25:29.528Z,100746.91
2023-01-26T13:28:03.597Z,100739.97
2023-01-26T13:30:46.558Z,100735.16
2023-01-26T13:33:25.135Z,100711.03
2023-01-26T13:35:59.630Z,100713.72
2023-01-26T13:38:40.723Z,100734.41
2023-01-26T13:41:21.775Z,100729.22
2023-01-26T13:44:00.004Z,100732.91
2023-01-26T13:46:39.552Z,100703.63
2023-01-26T13:49:37.983Z,100744.13
2023-01-26T13:52:25.967Z,100730.56
2023-01-26T13:55:02.329Z,100718.84
2023-01-26T13:57:34.290Z,100695.22
2023-01-26T14:00:12.084Z,100725.28
2023-01-26T14:02:49.745Z,100722.84
2023-01-26T14:05:23.519Z,100733.94
2023-01-26T14:07:56.620Z,100732.41
2023-01-26T14:10:28.892Z,100732.28
2023-01-26T14:13:02.970Z,100732.28
2023-01-26T14:15:35.391Z,100708.16
2023-01-26T14:18:17.120Z,100739.34
2023-01-26T14:20:49.144Z,100714.72
2023-01-26T14:23:21.295Z,100719.13
2023-01-26T14:26:06.092Z,100737.50
2023-01-26T14:28:43.624Z,100725.94
2023-01-26T14:31:26.387Z,100736.03
2023-01-26T14:34:00.048Z,100736.03
2023-01-26T14:36:39.431Z,100719.31
2023-01-26T14:39:20.065Z,100680.75
2023-01-26T14:41:52.170Z,100628.75
2023-01-26T14:44:24.221Z,100717.53
2023-01-26T14:47:02.402Z,100715.06
2023-01-26T14:49:47.208Z,100693.41
2023-01-26T14:52:40.720Z,100716.09
2023-01-26T14:55:21.264Z,100715.59
2023-01-26T14:57:54.397Z,100685.19
2023-01-26T15:00:30.900Z,100694.41
2023-01-26T15:03:07.704Z,100696.16
2023-01-26T15:05:42.448Z,100700.28
2023-01-26T15:08:24.753Z,100699.53
2023-01-26T15:11:19.636Z,100701.34
2023-01-26T15:13:56.011Z,100687.81
2023-01-26T15:16:28.146Z,100697.19
2023-01-26T15:19:02.309Z,100699.63
2023-01-26T15:21:44.028Z,100712.56
2023-01-26T15:24:16.485Z,100705.06
2023-01-26T15:26:50.367Z,100717.66
2023-01-26T15:29:28.795Z,100719.34
2023-01-26T15:32:01.069Z,100711.94
2023-01-26T15:34:37.038Z,100707.53
2023-01-26T15:37:29.060Z,100706.69
2023-01-26T15:40:01.154Z,100704.06
2023-01-26T15:42:33.687Z,100698.34
2023-01-26T15:45:26.197Z,100699.91
2023-01-26T15:47:58.196Z,100684.16
2023-01-26T15:50:30.125Z,100634.66
2023-01-26T15:53:02.095Z,100705.25
2023-01-26T15:55:34.300Z,100712.31
2023-01-26T15:58:06.169Z,100709.53
2023-01-26T16:00:38.168Z,100706.97
2023-01-26T16:03:16.645Z,100686.75
2023-01-26T16:05:49.219Z,100696.09
2023-01-26T16:08:21.144Z,100683.53
2023-01-26T16:10:54.887Z,100718.06
2023-01-26T16:13:27.051Z,100681.91
2023-01-26T16:15:59.303Z,100692.81
2023-01-26T16:18:31.225Z,100707.06
2023-01-26T16:21:16.119Z,100698.78
2023-01-26T16:23:48.709Z,100686.97
2023-01-26T16:26:20.967Z,100690.34
2023-01-26T16:28:52.984Z,100712.91
2023-01-26T16:31:32.924Z,100683.38
2023-01-26T16:34:05.097Z,100673.50
2023-01-26T16:36:37.042Z,100659.34
2023-01-26T16:39:09.042Z,100729.25
2023-01-26T16:41:41.011Z,100727.63
2023-01-26T16:44:15.428Z,100728.34
2023-01-26T16:46:47.552Z,100694.72
2023-01-26T16:49:19.548Z,100706.63
2023-01-26T16:51:51.520Z,100719.22
2023-01-26T16:54:23.453Z,100737.91
2023-01-26T16:56:55.565Z,100708.38
2023-01-26T16:59:27.484Z,100664.63
2023-01-26T17:01:59.663Z,100699.06
2023-01-26T17:04:31.669Z,100725.13
2023-01-26T17:07:03.655Z,100727.69
2023-01-26T17:09:35.623Z,100693.94
2023-01-26T17:12:09.211Z,100704.91
2023-01-26T17:14:41.208Z,100699.88
2023-01-26T17:17:13.141Z,100727.63
2023-01-26T17:19:45.264Z,100696.41
2023-01-26T17:22:17.272Z,100688.00
2023-01-26T17:24:49.924Z,100710.88
2023-01-26T17:27:22.203Z,100712.56
2023-01-26T17:29:56.380Z,100695.72
2023-01-26T17:32:28.660Z,100699.97
2023-01-26T17:35:00.587Z,100679.00
2023-01-26T17:37:32.558Z,100721.84
2023-01-26T17:40:05.845Z,100722.63
2023-01-26T17:42:37.814Z,100726.81
2023-01-26T17:45:10.746Z,100726.88
2023-01-26T17:47:43.913Z,100701.59
2023-01-26T17:50:16.245Z,100707.53
2023-01-26T17:52:48.639Z,100717.50
2023-01-26T17:55:20.762Z,100678.00
2023-01-26T17:57:52.819Z,100710.88
2023-01-26T18:00:24.746Z,100684.63
2023-01-26T18:02:57.024Z,100693.03
2023-01-26T18:05:28.916Z,100688.75
2023-01-26T18:08:00.864Z,100650.13
2023-01-26T18:10:33.049Z,100665.19
2023-01-26T18:13:04.990Z,100694.63
2023-01-26T18:15:37.732Z,100686.28
2023-01-26T18:18:09.684Z,100697.22
2023-01-26T18:20:41.742Z,100656.31
2023-01-26T18:23:13.685Z,100653.75
2023-01-26T18:25:46.395Z,100700.97
2023-01-26T18:28:18.750Z,100701.03
2023-01-26T18:30:50.757Z,100694.34
2023-01-26T18:33:22.800Z,100682.50
2023-01-26T18:36:03.611Z,100696.00
2023-01-26T18:38:36.042Z,100718.09
2023-01-26T18:41:16.283Z,100654.13
2023-01-26T18:43:52.157Z,100716.31
2023-01-26T18:46:25.026Z,100697.97
2023-01-26T18:49:03.968Z,100705.31
2023-01-26T18:51:36.653Z,100702.19
2023-01-26T18:54:09.943Z,100699.63
2023-01-26T18:56:42.240Z,100695.56
2023-01-26T18:59:14.211Z,100682.16
2023-01-26T19:01:46.143Z,100707.47
2023-01-26T19:04:18.464Z,100703.13
2023-01-26T19:06:50.491Z,100701.28
2023-01-26T19:09:22.956Z,100715.78
2023-01-26T19:11:55.760Z,100706.59
2023-01-26T19:14:29.277Z,100688.06
2023-01-26T19:17:01.770Z,100722.63
2023-01-26T19:19:34.519Z,100677.09
2023-01-26T19:22:06.499Z,100687.22
2023-01-26T19:24:38.432Z,100721.00
2023-01-26T19:27:11.246Z,100721.97
2023-01-26T19:29:43.207Z,100690.81
2023-01-26T19:32:15.179Z,100694.31
2023-01-26T19:34:47.130Z,100697.69
2023-01-26T19:37:19.329Z,100673.50
2023-01-26T19:39:51.311Z,100712.88
2023-01-26T19:42:23.320Z,100712.13
2023-01-26T19:44:55.184Z,100713.75
2023-01-26T19:47:27.205Z,100675.06
2023-01-26T19:49:59.160Z,100712.91
2023-01-26T19:52:31.104Z,100667.63
2023-01-26T19:55:03.073Z,100718.84
2023-01-26T19:57:36.471Z,100684.25
2023-01-26T20:00:09.241Z,100716.88
2023-01-26T20:02:41.416Z,100687.78
2023-01-26T20:05:13.629Z,100720.56
2023-01-26T20:07:45.680Z,100720.53
2023-01-26T20:10:17.782Z,100719.69
2023-01-26T20:12:49.749Z,100712.94
2023-01-26T20:15:21.669Z,100714.53
2023-01-26T20:17:53.556Z,100685.97
2023-01-26T20:20:25.496Z,100706.94
2023-01-26T20:22:57.920Z,100686.72
2023-01-26T20:25:30.848Z,100699.41
2023-01-26T20:28:02.765Z,100685.84
2023-01-26T20:30:35.026Z,100703.59
2023-01-26T20:33:07.731Z,100700.22
2023-01-26T20:35:40.951Z,100692.56
2023-01-26T20:38:12.999Z,100695.94
2023-01-26T20:40:44.949Z,100679.16
2023-01-26T20:43:17.038Z,100683.34
2023-01-26T20:45:49.246Z,100688.22
2023-01-26T20:48:21.107Z,100684.16
2023-01-26T20:50:53.490Z,100677.53
2023-01-26T20:53:25.427Z,100674.16
2023-01-26T20:56:00.303Z,100695.16
2023-01-26T20:58:32.245Z,100678.31
2023-01-26T21:01:06.728Z,100699.25
2023-01-26T21:03:39.544Z,100663.03
2023-01-26T21:06:14.425Z,100689.88
2023-01-26T21:08:47.767Z,100678.31
2023-01-26T21:11:20.960Z,100675.75
2023-01-26T21:13:55.321Z,100697.53
2023-01-26T21:16:27.806Z,100696.78
2023-01-26T21:19:00.266Z,100685.94
2023-01-26T21:21:33.048Z,100672.56
2023-01-26T21:24:05.316Z,100685.94
2023-01-26T21:26:37.617Z,100690.22
2023-01-26T21:29:13.560Z,100698.38
2023-01-26T21:31:49.606Z,100701.88
2023-01-26T21:34:21.583Z,100681.59
2023-01-26T21:36:53.558Z,100673.19
2023-01-26T21:39:25.633Z,100680.91
2023-01-26T21:41:57.776Z,100633.03
2023-01-26T21:44:31.733Z,100705.44
2023-01-26T21:47:04.246Z,100702.94
2023-01-26T21:49:36.163Z,100682.81
2023-01-26T21:52:28.071Z,100694.56
2023-01-26T21:55:00.099Z,100688.72
2023-01-26T21:57:51.003Z,100689.66
2023-01-26T22:00:23.102Z,100690.59
2023-01-26T22:02:56.863Z,100681.19
2023-01-26T22:05:29.123Z,100685.38
2023-01-26T22:08:01.119Z,100694.53
2023-01-26T22:10:33.055Z,100674.28
2023-01-26T22:13:05.216Z,100583.34
2023-01-26T22:15:37.146Z,100694.44
2023-01-26T22:18:09.078Z,100664.13
2023-01-26T22:20:41.040Z,100671.75
2023-01-26T22:23:14.335Z,100672.53
2023-01-26T22:25:46.272Z,100665.03
2023-01-26T22:28:18.252Z,100656.53
2023-01-26T22:30:50.203Z,100670.84
2023-01-26T22:33:22.164Z,100660.88
2023-01-26T22:36:08.494Z,100697.06
2023-01-26T22:38:40.677Z,100666.03
2023-01-26T22:41:21.612Z,100680.25
2023-01-26T22:43:55.564Z,100689.38
2023-01-26T22:46:29.108Z,100635.69
2023-01-26T22:49:01.292Z,100663.34
2023-01-26T22:51:38.815Z,100678.47
2023-01-26T22:54:11.082Z,100678.31
2023-01-26T22:56:42.903Z,100687.63
2023-01-26T22:59:14.863Z,100665.59
2023-01-26T23:01:46.955Z,100669.75
2023-01-26T23:04:18.912Z,100660.47
2023-01-26T23:06:50.926Z,100683.19
2023-01-26T23:09:22.933Z,100650.22
2023-01-26T23:11:54.881Z,100653.56
2023-01-26T23:14:26.813Z,100609.09
2023-01-26T23:16:59.379Z,100591.44
2023-01-26T23:19:33.854Z,100640.34
2023-01-26T23:22:06.020Z,100658.75
2023-01-26T23:24:37.946Z,100638.53
2023-01-26T23:27:09.887Z,100646.84
2023-01-26T23:29:41.841Z,100659.53
2023-01-26T23:32:13.783Z,100653.72
2023-01-26T23:34:45.736Z,100649.47
2023-01-26T23:37:17.669Z,100666.41
2023-01-26T23:39:49.611Z,100652.94
2023-01-26T23:42:21.541Z,100665.69
2023-01-26T23:44:53.521Z,100658.94
2023-01-26T23:47:25.574Z,100652.94
2023-01-26T23:49:57.604Z,100656.09
2023-01-26T23:52:29.521Z,100658.75
2023-01-26T23:55:01.545Z,100654.31
2023-01-26T23:57:33.892Z,100654.31
